sensor_id;sensor_type;location;lat;lon;timestamp;P1;durP1;ratioP1;P2;durP2;ratioP2
62707;SDS011;48769;51.624;5.886;2024-02-26T00:02:20;6.07;;;3.60;;
62707;SDS011;48769;51.624;5.886;2024-02-26T00:04:45;7.22;;;3.45;;
62707;SDS011;48769;51.624;5.886;2024-02-26T00:07:11;5.75;;;3.78;;
62707;SDS011;48769;51.624;5.886;2024-02-26T00:09:36;5.53;;;4.03;;
62707;SDS011;48769;51.624;5.886;2024-02-26T00:12:02;10.60;;;4.70;;
62707;SDS011;48769;51.624;5.886;2024-02-26T00:14:29;7.47;;;3.70;;
62707;SDS011;48769;51.624;5.886;2024-02-26T00:16:54;6.82;;;3.65;;
62707;SDS011;48769;51.624;5.886;2024-02-26T00:19:20;5.13;;;3.80;;
62707;SDS011;48769;51.624;5.886;2024-02-26T00:21:45;8.98;;;4.60;;
62707;SDS011;48769;51.624;5.886;2024-02-26T00:24:10;8.93;;;3.90;;
62707;SDS011;48769;51.624;5.886;2024-02-26T00:26:36;7.32;;;4.28;;
62707;SDS011;48769;51.624;5.886;2024-02-26T00:29:01;5.57;;;4.40;;
62707;SDS011;48769;51.624;5.886;2024-02-26T00:31:27;6.32;;;3.78;;
62707;SDS011;48769;51.624;5.886;2024-02-26T00:33:52;5.22;;;3.90;;
62707;SDS011;48769;51.624;5.886;2024-02-26T00:36:18;7.03;;;3.75;;
62707;SDS011;48769;51.624;5.886;2024-02-26T00:38:44;6.25;;;3.92;;
62707;SDS011;48769;51.624;5.886;2024-02-26T00:41:11;8.00;;;3.50;;
62707;SDS011;48769;51.624;5.886;2024-02-26T00:43:36;4.75;;;3.42;;
62707;SDS011;48769;51.624;5.886;2024-02-26T00:46:04;7.93;;;3.88;;
62707;SDS011;48769;51.624;5.886;2024-02-26T00:48:29;7.05;;;3.58;;
62707;SDS011;48769;51.624;5.886;2024-02-26T00:50:55;7.75;;;3.67;;
62707;SDS011;48769;51.624;5.886;2024-02-26T00:53:20;6.38;;;3.47;;
62707;SDS011;48769;51.624;5.886;2024-02-26T00:55:45;7.85;;;3.20;;
62707;SDS011;48769;51.624;5.886;2024-02-26T00:58:11;4.85;;;3.33;;
62707;SDS011;48769;51.624;5.886;2024-02-26T01:00:36;4.68;;;3.83;;
62707;SDS011;48769;51.624;5.886;2024-02-26T01:03:02;6.57;;;3.60;;
62707;SDS011;48769;51.624;5.886;2024-02-26T01:05:28;5.25;;;4.00;;
62707;SDS011;48769;51.624;5.886;2024-02-26T01:07:54;5.55;;;3.75;;
62707;SDS011;48769;51.624;5.886;2024-02-26T01:10:19;5.57;;;3.75;;
62707;SDS011;48769;51.624;5.886;2024-02-26T01:12:44;4.80;;;4.22;;
62707;SDS011;48769;51.624;5.886;2024-02-26T01:15:10;5.65;;;3.65;;
62707;SDS011;48769;51.624;5.886;2024-02-26T01:17:35;5.05;;;3.70;;
62707;SDS011;48769;51.624;5.886;2024-02-26T01:20:00;5.13;;;3.28;;
62707;SDS011;48769;51.624;5.886;2024-02-26T01:22:26;6.20;;;3.63;;
62707;SDS011;48769;51.624;5.886;2024-02-26T01:24:51;5.53;;;3.60;;
62707;SDS011;48769;51.624;5.886;2024-02-26T01:27:16;8.10;;;3.70;;
62707;SDS011;48769;51.624;5.886;2024-02-26T01:29:42;5.60;;;3.58;;
62707;SDS011;48769;51.624;5.886;2024-02-26T01:32:07;5.30;;;3.90;;
62707;SDS011;48769;51.624;5.886;2024-02-26T01:34:32;5.75;;;3.65;;
62707;SDS011;48769;51.624;5.886;2024-02-26T01:36:58;5.55;;;3.85;;
62707;SDS011;48769;51.624;5.886;2024-02-26T01:39:24;7.22;;;4.03;;
62707;SDS011;48769;51.624;5.886;2024-02-26T01:41:49;5.63;;;3.70;;
62707;SDS011;48769;51.624;5.886;2024-02-26T01:44:14;6.13;;;3.83;;
62707;SDS011;48769;51.624;5.886;2024-02-26T01:46:40;6.15;;;3.85;;
62707;SDS011;48769;51.624;5.886;2024-02-26T01:49:06;4.75;;;3.55;;
62707;SDS011;48769;51.624;5.886;2024-02-26T01:51:36;6.18;;;3.78;;
62707;SDS011;48769;51.624;5.886;2024-02-26T01:54:03;8.57;;;4.10;;
62707;SDS011;48769;51.624;5.886;2024-02-26T01:56:29;5.22;;;3.33;;
62707;SDS011;48769;51.624;5.886;2024-02-26T01:58:57;7.10;;;3.38;;
62707;SDS011;48769;51.624;5.886;2024-02-26T02:01:26;5.72;;;3.70;;
62707;SDS011;48769;51.624;5.886;2024-02-26T02:03:54;4.95;;;3.63;;
62707;SDS011;48769;51.624;5.886;2024-02-26T02:06:21;4.15;;;3.55;;
62707;SDS011;48769;51.624;5.886;2024-02-26T02:08:46;5.75;;;3.53;;
62707;SDS011;48769;51.624;5.886;2024-02-26T02:11:12;7.95;;;3.42;;
62707;SDS011;48769;51.624;5.886;2024-02-26T02:13:37;4.53;;;3.65;;
62707;SDS011;48769;51.624;5.886;2024-02-26T02:16:03;5.97;;;3.80;;
62707;SDS011;48769;51.624;5.886;2024-02-26T02:18:29;5.57;;;3.38;;
62707;SDS011;48769;51.624;5.886;2024-02-26T02:20:55;5.43;;;3.88;;
62707;SDS011;48769;51.624;5.886;2024-02-26T02:23:21;4.63;;;3.50;;
62707;SDS011;48769;51.624;5.886;2024-02-26T02:25:47;6.68;;;3.67;;
62707;SDS011;48769;51.624;5.886;2024-02-26T02:28:12;5.50;;;4.13;;
62707;SDS011;48769;51.624;5.886;2024-02-26T02:30:37;6.07;;;3.60;;
62707;SDS011;48769;51.624;5.886;2024-02-26T02:33:03;4.32;;;3.67;;
62707;SDS011;48769;51.624;5.886;2024-02-26T02:35:29;5.00;;;3.85;;
62707;SDS011;48769;51.624;5.886;2024-02-26T02:37:55;6.07;;;4.13;;
62707;SDS011;48769;51.624;5.886;2024-02-26T02:40:22;6.05;;;3.88;;
62707;SDS011;48769;51.624;5.886;2024-02-26T02:42:47;4.25;;;3.85;;
62707;SDS011;48769;51.624;5.886;2024-02-26T02:45:13;6.00;;;3.30;;
62707;SDS011;48769;51.624;5.886;2024-02-26T02:47:38;6.18;;;3.60;;
62707;SDS011;48769;51.624;5.886;2024-02-26T02:50:04;4.85;;;3.33;;
62707;SDS011;48769;51.624;5.886;2024-02-26T02:52:30;5.47;;;3.95;;
62707;SDS011;48769;51.624;5.886;2024-02-26T02:54:55;6.20;;;4.38;;
62707;SDS011;48769;51.624;5.886;2024-02-26T02:57:20;7.10;;;5.10;;
62707;SDS011;48769;51.624;5.886;2024-02-26T02:59:46;7.18;;;5.25;;
62707;SDS011;48769;51.624;5.886;2024-02-26T03:02:11;7.65;;;4.45;;
62707;SDS011;48769;51.624;5.886;2024-02-26T03:04:37;8.63;;;4.82;;
62707;SDS011;48769;51.624;5.886;2024-02-26T03:07:02;5.82;;;4.00;;
62707;SDS011;48769;51.624;5.886;2024-02-26T03:09:28;6.00;;;4.20;;
62707;SDS011;48769;51.624;5.886;2024-02-26T03:11:53;6.70;;;4.20;;
62707;SDS011;48769;51.624;5.886;2024-02-26T03:14:18;5.47;;;4.30;;
62707;SDS011;48769;51.624;5.886;2024-02-26T03:16:44;5.55;;;3.65;;
62707;SDS011;48769;51.624;5.886;2024-02-26T03:19:09;5.18;;;4.15;;
62707;SDS011;48769;51.624;5.886;2024-02-26T03:21:34;7.82;;;4.05;;
62707;SDS011;48769;51.624;5.886;2024-02-26T03:24:00;6.57;;;4.47;;
62707;SDS011;48769;51.624;5.886;2024-02-26T03:26:25;7.75;;;4.35;;
62707;SDS011;48769;51.624;5.886;2024-02-26T03:28:51;4.93;;;3.92;;
62707;SDS011;48769;51.624;5.886;2024-02-26T03:31:16;5.30;;;4.10;;
62707;SDS011;48769;51.624;5.886;2024-02-26T03:33:41;6.28;;;4.60;;
62707;SDS011;48769;51.624;5.886;2024-02-26T03:36:07;5.60;;;3.90;;
62707;SDS011;48769;51.624;5.886;2024-02-26T03:38:32;5.80;;;3.90;;
62707;SDS011;48769;51.624;5.886;2024-02-26T03:40:58;5.93;;;4.00;;
62707;SDS011;48769;51.624;5.886;2024-02-26T03:43:23;5.22;;;3.78;;
62707;SDS011;48769;51.624;5.886;2024-02-26T03:45:49;5.18;;;3.80;;
62707;SDS011;48769;51.624;5.886;2024-02-26T03:48:14;6.10;;;3.75;;
62707;SDS011;48769;51.624;5.886;2024-02-26T03:50:39;7.68;;;4.30;;
62707;SDS011;48769;51.624;5.886;2024-02-26T03:53:05;6.30;;;4.32;;
62707;SDS011;48769;51.624;5.886;2024-02-26T03:55:30;11.80;;;4.40;;
62707;SDS011;48769;51.624;5.886;2024-02-26T03:57:56;6.90;;;4.35;;
62707;SDS011;48769;51.624;5.886;2024-02-26T04:00:21;6.38;;;4.25;;
62707;SDS011;48769;51.624;5.886;2024-02-26T04:02:47;5.63;;;4.63;;
62707;SDS011;48769;51.624;5.886;2024-02-26T04:05:13;4.70;;;3.97;;
62707;SDS011;48769;51.624;5.886;2024-02-26T04:07:39;5.88;;;4.90;;
62707;SDS011;48769;51.624;5.886;2024-02-26T04:10:08;6.10;;;4.45;;
62707;SDS011;48769;51.624;5.886;2024-02-26T04:12:35;6.07;;;4.97;;
62707;SDS011;48769;51.624;5.886;2024-02-26T04:15:00;6.63;;;5.07;;
62707;SDS011;48769;51.624;5.886;2024-02-26T04:17:25;5.88;;;4.90;;
62707;SDS011;48769;51.624;5.886;2024-02-26T04:19:51;8.38;;;5.88;;
62707;SDS011;48769;51.624;5.886;2024-02-26T04:22:16;6.22;;;5.28;;
62707;SDS011;48769;51.624;5.886;2024-02-26T04:24:41;7.18;;;4.90;;
62707;SDS011;48769;51.624;5.886;2024-02-26T04:27:06;8.77;;;5.32;;
62707;SDS011;48769;51.624;5.886;2024-02-26T04:29:32;10.00;;;5.03;;
62707;SDS011;48769;51.624;5.886;2024-02-26T04:31:57;5.80;;;4.70;;
62707;SDS011;48769;51.624;5.886;2024-02-26T04:34:22;6.93;;;5.18;;
62707;SDS011;48769;51.624;5.886;2024-02-26T04:36:47;6.00;;;4.97;;
62707;SDS011;48769;51.624;5.886;2024-02-26T04:39:23;5.57;;;4.93;;
62707;SDS011;48769;51.624;5.886;2024-02-26T04:41:48;7.72;;;5.18;;
62707;SDS011;48769;51.624;5.886;2024-02-26T04:44:14;8.30;;;5.05;;
62707;SDS011;48769;51.624;5.886;2024-02-26T04:46:39;6.00;;;5.13;;
62707;SDS011;48769;51.624;5.886;2024-02-26T04:49:04;7.70;;;5.07;;
62707;SDS011;48769;51.624;5.886;2024-02-26T04:51:30;5.97;;;5.05;;
62707;SDS011;48769;51.624;5.886;2024-02-26T04:53:56;6.05;;;4.43;;
62707;SDS011;48769;51.624;5.886;2024-02-26T04:56:21;6.63;;;5.30;;
62707;SDS011;48769;51.624;5.886;2024-02-26T04:58:46;8.05;;;4.63;;
62707;SDS011;48769;51.624;5.886;2024-02-26T05:01:12;6.25;;;4.28;;
62707;SDS011;48769;51.624;5.886;2024-02-26T05:03:37;4.78;;;3.95;;
62707;SDS011;48769;51.624;5.886;2024-02-26T05:08:52;4.93;;;3.90;;
62707;SDS011;48769;51.624;5.886;2024-02-26T05:11:17;4.50;;;3.75;;
62707;SDS011;48769;51.624;5.886;2024-02-26T05:13:43;7.97;;;3.75;;
62707;SDS011;48769;51.624;5.886;2024-02-26T05:16:10;4.22;;;3.80;;
62707;SDS011;48769;51.624;5.886;2024-02-26T05:18:35;5.97;;;3.97;;
62707;SDS011;48769;51.624;5.886;2024-02-26T05:21:01;5.53;;;3.42;;
62707;SDS011;48769;51.624;5.886;2024-02-26T05:23:28;4.22;;;3.58;;
62707;SDS011;48769;51.624;5.886;2024-02-26T05:25:53;5.57;;;3.70;;
62707;SDS011;48769;51.624;5.886;2024-02-26T05:28:19;6.53;;;3.90;;
62707;SDS011;48769;51.624;5.886;2024-02-26T05:30:45;6.30;;;4.07;;
62707;SDS011;48769;51.624;5.886;2024-02-26T05:33:10;6.20;;;3.60;;
62707;SDS011;48769;51.624;5.886;2024-02-26T05:35:36;6.97;;;3.40;;
62707;SDS011;48769;51.624;5.886;2024-02-26T05:38:02;8.05;;;3.67;;
62707;SDS011;48769;51.624;5.886;2024-02-26T05:40:27;4.93;;;3.80;;
62707;SDS011;48769;51.624;5.886;2024-02-26T05:43:02;5.53;;;3.90;;
62707;SDS011;48769;51.624;5.886;2024-02-26T05:45:35;5.30;;;3.78;;
62707;SDS011;48769;51.624;5.886;2024-02-26T05:48:01;5.97;;;3.80;;
62707;SDS011;48769;51.624;5.886;2024-02-26T05:50:26;4.43;;;3.85;;
62707;SDS011;48769;51.624;5.886;2024-02-26T05:52:51;5.18;;;3.35;;
62707;SDS011;48769;51.624;5.886;2024-02-26T05:55:16;4.28;;;3.22;;
62707;SDS011;48769;51.624;5.886;2024-02-26T05:57:42;3.65;;;3.35;;
62707;SDS011;48769;51.624;5.886;2024-02-26T06:00:08;4.55;;;4.15;;
62707;SDS011;48769;51.624;5.886;2024-02-26T06:02:33;4.75;;;3.70;;
62707;SDS011;48769;51.624;5.886;2024-02-26T06:04:58;4.10;;;3.63;;
62707;SDS011;48769;51.624;5.886;2024-02-26T06:07:24;5.97;;;4.07;;
62707;SDS011;48769;51.624;5.886;2024-02-26T06:09:49;6.57;;;4.78;;
62707;SDS011;48769;51.624;5.886;2024-02-26T06:12:15;5.47;;;4.40;;
62707;SDS011;48769;51.624;5.886;2024-02-26T06:14:41;6.03;;;5.22;;
62707;SDS011;48769;51.624;5.886;2024-02-26T06:17:07;5.50;;;4.93;;
62707;SDS011;48769;51.624;5.886;2024-02-26T06:19:32;7.20;;;5.25;;
62707;SDS011;48769;51.624;5.886;2024-02-26T06:21:58;8.00;;;5.53;;
62707;SDS011;48769;51.624;5.886;2024-02-26T06:24:23;6.45;;;4.88;;
62707;SDS011;48769;51.624;5.886;2024-02-26T06:26:48;6.65;;;5.32;;
62707;SDS011;48769;51.624;5.886;2024-02-26T06:29:14;6.63;;;5.18;;
62707;SDS011;48769;51.624;5.886;2024-02-26T06:31:40;10.38;;;6.20;;
62707;SDS011;48769;51.624;5.886;2024-02-26T06:34:05;7.28;;;6.53;;
62707;SDS011;48769;51.624;5.886;2024-02-26T06:36:30;7.45;;;6.07;;
62707;SDS011;48769;51.624;5.886;2024-02-26T06:38:57;7.22;;;6.28;;
62707;SDS011;48769;51.624;5.886;2024-02-26T06:41:22;7.97;;;6.20;;
62707;SDS011;48769;51.624;5.886;2024-02-26T06:43:52;7.60;;;6.25;;
62707;SDS011;48769;51.624;5.886;2024-02-26T06:46:18;8.95;;;6.25;;
62707;SDS011;48769;51.624;5.886;2024-02-26T06:48:43;8.40;;;6.40;;
62707;SDS011;48769;51.624;5.886;2024-02-26T06:51:09;9.13;;;6.70;;
62707;SDS011;48769;51.624;5.886;2024-02-26T06:53:34;9.30;;;7.05;;
62707;SDS011;48769;51.624;5.886;2024-02-26T06:56:00;9.52;;;6.25;;
62707;SDS011;48769;51.624;5.886;2024-02-26T06:58:25;9.13;;;7.63;;
62707;SDS011;48769;51.624;5.886;2024-02-26T07:00:50;9.60;;;7.35;;
62707;SDS011;48769;51.624;5.886;2024-02-26T07:03:16;11.82;;;7.93;;
62707;SDS011;48769;51.624;5.886;2024-02-26T07:05:41;7.93;;;6.45;;
62707;SDS011;48769;51.624;5.886;2024-02-26T07:08:07;10.43;;;6.95;;
62707;SDS011;48769;51.624;5.886;2024-02-26T07:10:32;8.10;;;6.95;;
62707;SDS011;48769;51.624;5.886;2024-02-26T07:12:57;8.77;;;7.00;;
62707;SDS011;48769;51.624;5.886;2024-02-26T07:15:23;10.48;;;6.97;;
62707;SDS011;48769;51.624;5.886;2024-02-26T07:17:48;7.80;;;6.57;;
62707;SDS011;48769;51.624;5.886;2024-02-26T07:20:14;8.75;;;6.80;;
62707;SDS011;48769;51.624;5.886;2024-02-26T07:22:40;7.90;;;6.97;;
62707;SDS011;48769;51.624;5.886;2024-02-26T07:25:07;8.35;;;6.72;;
62707;SDS011;48769;51.624;5.886;2024-02-26T07:27:33;8.30;;;6.75;;
62707;SDS011;48769;51.624;5.886;2024-02-26T07:29:59;7.40;;;5.68;;
62707;SDS011;48769;51.624;5.886;2024-02-26T07:32:24;7.85;;;6.05;;
62707;SDS011;48769;51.624;5.886;2024-02-26T07:34:49;7.07;;;5.22;;
62707;SDS011;48769;51.624;5.886;2024-02-26T07:37:15;7.32;;;6.35;;
62707;SDS011;48769;51.624;5.886;2024-02-26T07:39:40;6.53;;;5.75;;
62707;SDS011;48769;51.624;5.886;2024-02-26T07:42:05;6.75;;;6.00;;
62707;SDS011;48769;51.624;5.886;2024-02-26T07:44:31;8.68;;;6.68;;
62707;SDS011;48769;51.624;5.886;2024-02-26T07:46:57;6.95;;;5.93;;
62707;SDS011;48769;51.624;5.886;2024-02-26T07:49:23;7.68;;;6.20;;
62707;SDS011;48769;51.624;5.886;2024-02-26T07:51:48;7.30;;;5.70;;
62707;SDS011;48769;51.624;5.886;2024-02-26T07:54:13;8.85;;;6.35;;
62707;SDS011;48769;51.624;5.886;2024-02-26T07:56:41;6.97;;;6.10;;
62707;SDS011;48769;51.624;5.886;2024-02-26T07:59:06;9.13;;;6.50;;
62707;SDS011;48769;51.624;5.886;2024-02-26T08:01:32;7.72;;;6.18;;
62707;SDS011;48769;51.624;5.886;2024-02-26T08:03:58;7.45;;;6.28;;
62707;SDS011;48769;51.624;5.886;2024-02-26T08:06:24;8.13;;;6.00;;
62707;SDS011;48769;51.624;5.886;2024-02-26T08:08:50;7.28;;;6.10;;
62707;SDS011;48769;51.624;5.886;2024-02-26T08:11:15;9.05;;;6.13;;
62707;SDS011;48769;51.624;5.886;2024-02-26T08:13:41;7.65;;;5.95;;
62707;SDS011;48769;51.624;5.886;2024-02-26T08:16:06;7.55;;;5.97;;
62707;SDS011;48769;51.624;5.886;2024-02-26T08:18:32;8.48;;;6.57;;
62707;SDS011;48769;51.624;5.886;2024-02-26T08:20:57;7.30;;;5.95;;
62707;SDS011;48769;51.624;5.886;2024-02-26T08:23:22;7.75;;;6.97;;
62707;SDS011;48769;51.624;5.886;2024-02-26T08:25:48;7.75;;;6.40;;
62707;SDS011;48769;51.624;5.886;2024-02-26T08:28:13;10.05;;;6.40;;
62707;SDS011;48769;51.624;5.886;2024-02-26T08:30:39;8.85;;;7.00;;
62707;SDS011;48769;51.624;5.886;2024-02-26T08:33:04;9.07;;;6.90;;
62707;SDS011;48769;51.624;5.886;2024-02-26T08:35:29;8.90;;;7.03;;
62707;SDS011;48769;51.624;5.886;2024-02-26T08:37:55;9.50;;;6.72;;
62707;SDS011;48769;51.624;5.886;2024-02-26T08:40:20;11.65;;;7.72;;
62707;SDS011;48769;51.624;5.886;2024-02-26T08:42:46;10.02;;;7.65;;
62707;SDS011;48769;51.624;5.886;2024-02-26T08:45:11;9.05;;;7.55;;
62707;SDS011;48769;51.624;5.886;2024-02-26T08:47:40;13.38;;;7.00;;
62707;SDS011;48769;51.624;5.886;2024-02-26T08:50:05;8.73;;;7.47;;
62707;SDS011;48769;51.624;5.886;2024-02-26T08:52:31;13.10;;;7.70;;
62707;SDS011;48769;51.624;5.886;2024-02-26T08:54:56;9.50;;;7.85;;
62707;SDS011;48769;51.624;5.886;2024-02-26T08:57:22;10.35;;;8.00;;
62707;SDS011;48769;51.624;5.886;2024-02-26T08:59:47;9.98;;;7.53;;
62707;SDS011;48769;51.624;5.886;2024-02-26T09:02:13;8.80;;;7.35;;
62707;SDS011;48769;51.624;5.886;2024-02-26T09:04:38;11.70;;;7.20;;
62707;SDS011;48769;51.624;5.886;2024-02-26T09:07:04;9.60;;;7.72;;
62707;SDS011;48769;51.624;5.886;2024-02-26T09:09:29;10.50;;;7.50;;
62707;SDS011;48769;51.624;5.886;2024-02-26T09:11:54;9.18;;;7.20;;
62707;SDS011;48769;51.624;5.886;2024-02-26T09:14:20;13.15;;;8.05;;
62707;SDS011;48769;51.624;5.886;2024-02-26T09:16:46;8.65;;;7.53;;
62707;SDS011;48769;51.624;5.886;2024-02-26T09:19:13;10.52;;;7.53;;
62707;SDS011;48769;51.624;5.886;2024-02-26T09:21:42;10.20;;;8.05;;
62707;SDS011;48769;51.624;5.886;2024-02-26T09:24:10;9.73;;;7.57;;
62707;SDS011;48769;51.624;5.886;2024-02-26T09:26:36;10.40;;;7.65;;
62707;SDS011;48769;51.624;5.886;2024-02-26T09:29:02;8.43;;;6.78;;
62707;SDS011;48769;51.624;5.886;2024-02-26T09:31:29;9.93;;;6.72;;
62707;SDS011;48769;51.624;5.886;2024-02-26T09:33:54;8.63;;;6.57;;
62707;SDS011;48769;51.624;5.886;2024-02-26T09:36:19;9.65;;;7.07;;
62707;SDS011;48769;51.624;5.886;2024-02-26T09:38:45;9.13;;;6.90;;
62707;SDS011;48769;51.624;5.886;2024-02-26T09:41:16;8.23;;;6.72;;
62707;SDS011;48769;51.624;5.886;2024-02-26T09:46:22;12.57;;;7.53;;
62707;SDS011;48769;51.624;5.886;2024-02-26T09:48:48;12.18;;;8.13;;
62707;SDS011;48769;51.624;5.886;2024-02-26T09:51:14;9.48;;;7.63;;
62707;SDS011;48769;51.624;5.886;2024-02-26T09:53:42;10.35;;;7.95;;
62707;SDS011;48769;51.624;5.886;2024-02-26T09:56:10;8.75;;;6.70;;
62707;SDS011;48769;51.624;5.886;2024-02-26T09:58:37;11.02;;;7.95;;
62707;SDS011;48769;51.624;5.886;2024-02-26T10:01:04;10.32;;;8.25;;
62707;SDS011;48769;51.624;5.886;2024-02-26T10:03:38;11.30;;;8.50;;
62707;SDS011;48769;51.624;5.886;2024-02-26T10:06:06;10.38;;;9.02;;
62707;SDS011;48769;51.624;5.886;2024-02-26T10:08:32;11.63;;;9.73;;
62707;SDS011;48769;51.624;5.886;2024-02-26T10:10:58;11.35;;;9.05;;
62707;SDS011;48769;51.624;5.886;2024-02-26T10:13:23;12.10;;;9.70;;
62707;SDS011;48769;51.624;5.886;2024-02-26T10:15:49;11.30;;;9.25;;
62707;SDS011;48769;51.624;5.886;2024-02-26T10:18:14;12.05;;;10.05;;
62707;SDS011;48769;51.624;5.886;2024-02-26T10:20:40;13.13;;;9.90;;
62707;SDS011;48769;51.624;5.886;2024-02-26T10:23:05;11.50;;;9.57;;
62707;SDS011;48769;51.624;5.886;2024-02-26T10:25:31;14.10;;;10.20;;
62707;SDS011;48769;51.624;5.886;2024-02-26T10:28:00;15.02;;;11.07;;
62707;SDS011;48769;51.624;5.886;2024-02-26T10:30:27;16.35;;;11.10;;
62707;SDS011;48769;51.624;5.886;2024-02-26T10:32:53;14.55;;;10.07;;
62707;SDS011;48769;51.624;5.886;2024-02-26T10:35:19;15.07;;;11.10;;
62707;SDS011;48769;51.624;5.886;2024-02-26T10:37:47;18.75;;;12.98;;
62707;SDS011;48769;51.624;5.886;2024-02-26T10:40:14;20.27;;;12.93;;
62707;SDS011;48769;51.624;5.886;2024-02-26T10:42:41;17.90;;;13.27;;
62707;SDS011;48769;51.624;5.886;2024-02-26T10:45:07;18.63;;;12.05;;
62707;SDS011;48769;51.624;5.886;2024-02-26T10:47:37;17.17;;;13.10;;
62707;SDS011;48769;51.624;5.886;2024-02-26T10:50:04;17.27;;;13.93;;
62707;SDS011;48769;51.624;5.886;2024-02-26T10:52:31;19.63;;;14.00;;
62707;SDS011;48769;51.624;5.886;2024-02-26T10:55:02;17.00;;;12.93;;
62707;SDS011;48769;51.624;5.886;2024-02-26T10:57:32;20.15;;;14.18;;
62707;SDS011;48769;51.624;5.886;2024-02-26T11:00:05;20.20;;;14.23;;
62707;SDS011;48769;51.624;5.886;2024-02-26T11:02:32;17.85;;;13.80;;
62707;SDS011;48769;51.624;5.886;2024-02-26T11:05:00;19.00;;;14.38;;
62707;SDS011;48769;51.624;5.886;2024-02-26T11:07:27;20.42;;;14.77;;
62707;SDS011;48769;51.624;5.886;2024-02-26T11:09:54;22.60;;;15.30;;
62707;SDS011;48769;51.624;5.886;2024-02-26T11:12:21;23.02;;;16.05;;
62707;SDS011;48769;51.624;5.886;2024-02-26T11:14:47;21.65;;;14.55;;
62707;SDS011;48769;51.624;5.886;2024-02-26T11:17:16;20.58;;;14.05;;
62707;SDS011;48769;51.624;5.886;2024-02-26T11:19:44;25.60;;;16.00;;
62707;SDS011;48769;51.624;5.886;2024-02-26T11:22:11;20.95;;;14.40;;
62707;SDS011;48769;51.624;5.886;2024-02-26T11:24:36;21.58;;;14.95;;
62707;SDS011;48769;51.624;5.886;2024-02-26T11:27:06;23.38;;;16.05;;
62707;SDS011;48769;51.624;5.886;2024-02-26T11:29:38;24.27;;;14.15;;
62707;SDS011;48769;51.624;5.886;2024-02-26T11:32:08;21.52;;;15.55;;
62707;SDS011;48769;51.624;5.886;2024-02-26T11:34:34;22.13;;;15.45;;
62707;SDS011;48769;51.624;5.886;2024-02-26T11:37:13;26.92;;;16.17;;
62707;SDS011;48769;51.624;5.886;2024-02-26T11:39:42;22.92;;;14.38;;
62707;SDS011;48769;51.624;5.886;2024-02-26T11:42:10;25.50;;;16.83;;
62707;SDS011;48769;51.624;5.886;2024-02-26T11:44:39;27.75;;;16.58;;
62707;SDS011;48769;51.624;5.886;2024-02-26T11:47:11;25.88;;;14.55;;
62707;SDS011;48769;51.624;5.886;2024-02-26T11:49:38;24.70;;;15.60;;
62707;SDS011;48769;51.624;5.886;2024-02-26T11:52:07;26.95;;;15.75;;
62707;SDS011;48769;51.624;5.886;2024-02-26T11:54:40;28.70;;;18.10;;
62707;SDS011;48769;51.624;5.886;2024-02-26T11:57:27;28.15;;;15.90;;
62707;SDS011;48769;51.624;5.886;2024-02-26T11:59:54;28.02;;;16.27;;
62707;SDS011;48769;51.624;5.886;2024-02-26T12:03:03;27.85;;;16.38;;
62707;SDS011;48769;51.624;5.886;2024-02-26T12:05:16;28.95;;;17.27;;
62707;SDS011;48769;51.624;5.886;2024-02-26T12:07:55;32.10;;;18.25;;
62707;SDS011;48769;51.624;5.886;2024-02-26T12:10:32;30.88;;;18.00;;
62707;SDS011;48769;51.624;5.886;2024-02-26T12:13:13;32.55;;;18.40;;
62707;SDS011;48769;51.624;5.886;2024-02-26T12:15:54;37.88;;;19.98;;
62707;SDS011;48769;51.624;5.886;2024-02-26T12:18:20;36.20;;;21.10;;
62707;SDS011;48769;51.624;5.886;2024-02-26T12:20:54;39.03;;;21.13;;
62707;SDS011;48769;51.624;5.886;2024-02-26T12:23:23;33.10;;;17.45;;
62707;SDS011;48769;51.624;5.886;2024-02-26T12:25:48;34.58;;;20.70;;
62707;SDS011;48769;51.624;5.886;2024-02-26T12:28:14;42.28;;;20.83;;
62707;SDS011;48769;51.624;5.886;2024-02-26T12:30:40;37.55;;;20.02;;
62707;SDS011;48769;51.624;5.886;2024-02-26T12:33:05;38.65;;;21.88;;
62707;SDS011;48769;51.624;5.886;2024-02-26T12:35:31;42.58;;;23.50;;
62707;SDS011;48769;51.624;5.886;2024-02-26T12:37:57;36.67;;;19.73;;
62707;SDS011;48769;51.624;5.886;2024-02-26T12:40:23;39.67;;;21.35;;
62707;SDS011;48769;51.624;5.886;2024-02-26T12:42:49;35.88;;;20.08;;
62707;SDS011;48769;51.624;5.886;2024-02-26T12:45:14;43.92;;;22.92;;
62707;SDS011;48769;51.624;5.886;2024-02-26T12:47:41;38.13;;;20.33;;
62707;SDS011;48769;51.624;5.886;2024-02-26T12:50:08;42.97;;;21.70;;
62707;SDS011;48769;51.624;5.886;2024-02-26T12:52:45;41.67;;;22.58;;
62707;SDS011;48769;51.624;5.886;2024-02-26T12:55:16;44.50;;;24.10;;
62707;SDS011;48769;51.624;5.886;2024-02-26T12:57:43;44.58;;;25.10;;
62707;SDS011;48769;51.624;5.886;2024-02-26T13:02:56;39.25;;;22.05;;
62707;SDS011;48769;51.624;5.886;2024-02-26T13:05:24;43.88;;;24.77;;
62707;SDS011;48769;51.624;5.886;2024-02-26T13:07:50;39.42;;;22.25;;
62707;SDS011;48769;51.624;5.886;2024-02-26T13:10:18;39.60;;;20.95;;
62707;SDS011;48769;51.624;5.886;2024-02-26T13:15:16;32.38;;;19.40;;
62707;SDS011;48769;51.624;5.886;2024-02-26T13:17:42;32.72;;;19.83;;
62707;SDS011;48769;51.624;5.886;2024-02-26T13:20:12;32.65;;;18.35;;
62707;SDS011;48769;51.624;5.886;2024-02-26T13:22:38;31.63;;;18.40;;
62707;SDS011;48769;51.624;5.886;2024-02-26T13:25:04;31.20;;;17.70;;
62707;SDS011;48769;51.624;5.886;2024-02-26T13:27:32;30.65;;;17.23;;
62707;SDS011;48769;51.624;5.886;2024-02-26T13:32:40;28.00;;;15.80;;
62707;SDS011;48769;51.624;5.886;2024-02-26T13:35:09;28.42;;;16.23;;
62707;SDS011;48769;51.624;5.886;2024-02-26T13:37:38;28.80;;;15.63;;
62707;SDS011;48769;51.624;5.886;2024-02-26T13:40:05;25.58;;;15.20;;
62707;SDS011;48769;51.624;5.886;2024-02-26T13:42:31;24.48;;;14.77;;
62707;SDS011;48769;51.624;5.886;2024-02-26T13:44:56;23.95;;;15.30;;
62707;SDS011;48769;51.624;5.886;2024-02-26T13:47:24;20.50;;;13.45;;
62707;SDS011;48769;51.624;5.886;2024-02-26T13:49:50;20.50;;;12.82;;
62707;SDS011;48769;51.624;5.886;2024-02-26T13:52:15;24.02;;;13.68;;
62707;SDS011;48769;51.624;5.886;2024-02-26T13:54:41;20.73;;;12.75;;
62707;SDS011;48769;51.624;5.886;2024-02-26T13:57:06;19.83;;;11.40;;
62707;SDS011;48769;51.624;5.886;2024-02-26T13:59:32;17.67;;;10.63;;
62707;SDS011;48769;51.624;5.886;2024-02-26T14:01:57;22.00;;;11.88;;
62707;SDS011;48769;51.624;5.886;2024-02-26T14:04:26;21.27;;;11.88;;
62707;SDS011;48769;51.624;5.886;2024-02-26T14:06:51;20.85;;;13.05;;
62707;SDS011;48769;51.624;5.886;2024-02-26T14:09:17;18.98;;;10.77;;
62707;SDS011;48769;51.624;5.886;2024-02-26T14:11:47;18.90;;;11.82;;
62707;SDS011;48769;51.624;5.886;2024-02-26T14:14:12;22.23;;;12.55;;
62707;SDS011;48769;51.624;5.886;2024-02-26T14:16:38;18.75;;;12.70;;
62707;SDS011;48769;51.624;5.886;2024-02-26T14:19:04;18.77;;;12.02;;
62707;SDS011;48769;51.624;5.886;2024-02-26T14:21:29;20.77;;;13.30;;
62707;SDS011;48769;51.624;5.886;2024-02-26T14:23:54;19.50;;;11.05;;
62707;SDS011;48769;51.624;5.886;2024-02-26T14:26:21;19.75;;;12.70;;
62707;SDS011;48769;51.624;5.886;2024-02-26T14:28:47;18.55;;;11.05;;
62707;SDS011;48769;51.624;5.886;2024-02-26T14:31:12;19.38;;;11.18;;
62707;SDS011;48769;51.624;5.886;2024-02-26T14:33:38;19.67;;;10.95;;
62707;SDS011;48769;51.624;5.886;2024-02-26T14:36:05;18.83;;;9.43;;
62707;SDS011;48769;51.624;5.886;2024-02-26T14:38:31;18.17;;;11.18;;
62707;SDS011;48769;51.624;5.886;2024-02-26T14:40:57;19.25;;;10.70;;
62707;SDS011;48769;51.624;5.886;2024-02-26T14:43:22;21.35;;;12.20;;
62707;SDS011;48769;51.624;5.886;2024-02-26T14:45:47;18.63;;;13.05;;
62707;SDS011;48769;51.624;5.886;2024-02-26T14:48:13;19.50;;;12.27;;